sensor_id;sensor_type;location;lat;lon;timestamp;pressure;altitude;pressure_sealevel;temperature;humidity
74065;BME280;62421;51.412;5.432;2023-09-07T00:01:14;101772.56;;;16.48;100.00
74065;BME280;62421;51.412;5.432;2023-09-07T00:03:40;101773.63;;;16.45;100.00
74065;BME280;62421;51.412;5.432;2023-09-07T00:06:06;101762.94;;;16.44;100.00
74065;BME280;62421;51.412;5.432;2023-09-07T00:08:32;101768.59;;;16.41;100.00
74065;BME280;62421;51.412;5.432;2023-09-07T00:11:05;101765.03;;;16.40;100.00
74065;BME280;62421;51.412;5.432;2023-09-07T00:13:31;101766.25;;;16.36;100.00
74065;BME280;62421;51.412;5.432;2023-09-07T00:15:59;101773.16;;;16.29;100.00
74065;BME280;62421;51.412;5.432;2023-09-07T00:18:25;101760.94;;;16.23;100.00
74065;BME280;62421;51.412;5.432;2023-09-07T00:20:51;101766.84;;;16.17;100.00
74065;BME280;62421;51.412;5.432;2023-09-07T00:23:16;101770.94;;;16.11;100.00
74065;BME280;62421;51.412;5.432;2023-09-07T00:25:41;101772.25;;;16.06;100.00
74065;BME280;62421;51.412;5.432;2023-09-07T00:28:07;101768.06;;;16.02;100.00
74065;BME280;62421;51.412;5.432;2023-09-07T00:30:32;101767.09;;;16.03;100.00
74065;BME280;62421;51.412;5.432;2023-09-07T00:32:57;101760.06;;;16.00;100.00
74065;BME280;62421;51.412;5.432;2023-09-07T00:35:22;101763.03;;;15.97;100.00
74065;BME280;62421;51.412;5.432;2023-09-07T00:37:48;101756.97;;;15.93;100.00
74065;BME280;62421;51.412;5.432;2023-09-07T00:40:13;101754.41;;;15.92;100.00
74065;BME280;62421;51.412;5.432;2023-09-07T00:42:38;101757.97;;;15.92;100.00
74065;BME280;62421;51.412;5.432;2023-09-07T00:45:04;101749.72;;;15.94;100.00
74065;BME280;62421;51.412;5.432;2023-09-07T00:47:30;101749.09;;;15.90;100.00
74065;BME280;62421;51.412;5.432;2023-09-07T00:49:55;101757.13;;;15.92;100.00
74065;BME280;62421;51.412;5.432;2023-09-07T00:52:21;101764.50;;;15.90;100.00
74065;BME280;62421;51.412;5.432;2023-09-07T00:54:46;101752.03;;;15.87;100.00
74065;BME280;62421;51.412;5.432;2023-09-07T00:57:12;101758.56;;;15.85;100.00
74065;BME280;62421;51.412;5.432;2023-09-07T00:59:37;101765.94;;;15.83;100.00
74065;BME280;62421;51.412;5.432;2023-09-07T01:02:02;101769.09;;;15.76;100.00
74065;BME280;62421;51.412;5.432;2023-09-07T01:04:30;101759.38;;;15.74;100.00
74065;BME280;62421;51.412;5.432;2023-09-07T01:07:48;101762.97;;;15.74;100.00
74065;BME280;62421;51.412;5.432;2023-09-07T01:09:51;101772.06;;;15.73;100.00
74065;BME280;62421;51.412;5.432;2023-09-07T01:12:16;101761.34;;;15.72;100.00
74065;BME280;62421;51.412;5.432;2023-09-07T01:14:42;101756.03;;;15.70;100.00
74065;BME280;62421;51.412;5.432;2023-09-07T01:17:08;101767.19;;;15.66;100.00
74065;BME280;62421;51.412;5.432;2023-09-07T01:19:34;101761.19;;;15.62;100.00
74065;BME280;62421;51.412;5.432;2023-09-07T01:22:00;101767.69;;;15.60;100.00
74065;BME280;62421;51.412;5.432;2023-09-07T01:24:26;101761.53;;;15.57;100.00
74065;BME280;62421;51.412;5.432;2023-09-07T01:26:55;101765.31;;;15.55;100.00
74065;BME280;62421;51.412;5.432;2023-09-07T01:29:22;101756.44;;;15.53;100.00
74065;BME280;62421;51.412;5.432;2023-09-07T01:31:47;101746.72;;;15.50;100.00
74065;BME280;62421;51.412;5.432;2023-09-07T01:34:13;101755.19;;;15.46;100.00
74065;BME280;62421;51.412;5.432;2023-09-07T01:36:38;101749.28;;;15.41;100.00
74065;BME280;62421;51.412;5.432;2023-09-07T01:39:04;101745.09;;;15.36;100.00
74065;BME280;62421;51.412;5.432;2023-09-07T01:41:31;101741.84;;;15.31;100.00
74065;BME280;62421;51.412;5.432;2023-09-07T01:43:56;101745.91;;;15.26;100.00
74065;BME280;62421;51.412;5.432;2023-09-07T01:46:21;101749.56;;;15.25;100.00
74065;BME280;62421;51.412;5.432;2023-09-07T01:48:47;101741.81;;;15.20;100.00
74065;BME280;62421;51.412;5.432;2023-09-07T01:51:12;101737.50;;;15.18;100.00
74065;BME280;62421;51.412;5.432;2023-09-07T01:53:37;101741.19;;;15.17;100.00
74065;BME280;62421;51.412;5.432;2023-09-07T01:56:03;101741.41;;;15.13;100.00
74065;BME280;62421;51.412;5.432;2023-09-07T01:58:28;101747.81;;;15.12;100.00
74065;BME280;62421;51.412;5.432;2023-09-07T02:00:57;101736.25;;;15.10;100.00
74065;BME280;62421;51.412;5.432;2023-09-07T02:03:23;101741.75;;;15.09;100.00
74065;BME280;62421;51.412;5.432;2023-09-07T02:05:48;101741.00;;;15.07;100.00
74065;BME280;62421;51.412;5.432;2023-09-07T02:08:13;101743.72;;;15.07;100.00
74065;BME280;62421;51.412;5.432;2023-09-07T02:10:39;101750.22;;;15.04;100.00
74065;BME280;62421;51.412;5.432;2023-09-07T02:13:04;101746.75;;;15.02;100.00
74065;BME280;62421;51.412;5.432;2023-09-07T02:15:30;101742.31;;;15.01;100.00
74065;BME280;62421;51.412;5.432;2023-09-07T02:17:55;101745.03;;;15.01;100.00
74065;BME280;62421;51.412;5.432;2023-09-07T02:20:20;101741.34;;;15.02;100.00
74065;BME280;62421;51.412;5.432;2023-09-07T02:22:46;101734.94;;;15.03;100.00
74065;BME280;62421;51.412;5.432;2023-09-07T02:25:11;101739.63;;;15.01;100.00
74065;BME280;62421;51.412;5.432;2023-09-07T02:27:37;101743.56;;;14.97;100.00
74065;BME280;62421;51.412;5.432;2023-09-07T02:30:03;101735.53;;;14.95;100.00
74065;BME280;62421;51.412;5.432;2023-09-07T02:32:29;101741.16;;;14.92;100.00
74065;BME280;62421;51.412;5.432;2023-09-07T02:34:54;101734.91;;;14.92;100.00
74065;BME280;62421;51.412;5.432;2023-09-07T02:37:19;101744.97;;;14.90;100.00
74065;BME280;62421;51.412;5.432;2023-09-07T02:39:44;101741.41;;;14.89;100.00
74065;BME280;62421;51.412;5.432;2023-09-07T02:42:10;101735.34;;;14.86;100.00
74065;BME280;62421;51.412;5.432;2023-09-07T02:44:35;101737.19;;;14.85;100.00
74065;BME280;62421;51.412;5.432;2023-09-07T02:47:01;101739.16;;;14.83;100.00
74065;BME280;62421;51.412;5.432;2023-09-07T02:49:26;101737.53;;;14.81;100.00
74065;BME280;62421;51.412;5.432;2023-09-07T02:51:51;101736.69;;;14.80;100.00
74065;BME280;62421;51.412;5.432;2023-09-07T02:54:17;101734.19;;;14.77;100.00
74065;BME280;62421;51.412;5.432;2023-09-07T02:56:42;101734.53;;;14.72;100.00
74065;BME280;62421;51.412;5.432;2023-09-07T02:59:07;101735.63;;;14.70;100.00
74065;BME280;62421;51.412;5.432;2023-09-07T03:01:33;101730.44;;;14.67;100.00
74065;BME280;62421;51.412;5.432;2023-09-07T03:03:59;101726.13;;;14.64;100.00
74065;BME280;62421;51.412;5.432;2023-09-07T03:06:24;101732.72;;;14.60;100.00
74065;BME280;62421;51.412;5.432;2023-09-07T03:08:50;101732.72;;;14.60;100.00
74065;BME280;62421;51.412;5.432;2023-09-07T03:11:17;101736.31;;;14.61;100.00
74065;BME280;62421;51.412;5.432;2023-09-07T03:13:42;101728.97;;;14.63;100.00
74065;BME280;62421;51.412;5.432;2023-09-07T03:16:08;101728.06;;;14.62;100.00
74065;BME280;62421;51.412;5.432;2023-09-07T03:18:33;101734.56;;;14.60;100.00
74065;BME280;62421;51.412;5.432;2023-09-07T03:21:00;101733.91;;;14.56;100.00
74065;BME280;62421;51.412;5.432;2023-09-07T03:23:27;101730.66;;;14.51;100.00
74065;BME280;62421;51.412;5.432;2023-09-07T03:25:53;101736.06;;;14.51;100.00
74065;BME280;62421;51.412;5.432;2023-09-07T03:28:18;101728.81;;;14.51;100.00
74065;BME280;62421;51.412;5.432;2023-09-07T03:30:43;101728.97;;;14.50;100.00
74065;BME280;62421;51.412;5.432;2023-09-07T03:33:09;101731.97;;;14.45;100.00
74065;BME280;62421;51.412;5.432;2023-09-07T03:35:34;101727.66;;;14.43;100.00
74065;BME280;62421;51.412;5.432;2023-09-07T03:38:00;101727.13;;;14.38;100.00
74065;BME280;62421;51.412;5.432;2023-09-07T03:40:25;101732.63;;;14.36;100.00
74065;BME280;62421;51.412;5.432;2023-09-07T03:42:51;101729.19;;;14.34;100.00
74065;BME280;62421;51.412;5.432;2023-09-07T03:45:16;101736.53;;;14.32;100.00
74065;BME280;62421;51.412;5.432;2023-09-07T03:47:42;101729.53;;;14.29;100.00
74065;BME280;62421;51.412;5.432;2023-09-07T03:50:08;101743.13;;;14.28;100.00
74065;BME280;62421;51.412;5.432;2023-09-07T03:52:34;101739.81;;;14.24;100.00
74065;BME280;62421;51.412;5.432;2023-09-07T03:55:00;101741.75;;;14.22;100.00
74065;BME280;62421;51.412;5.432;2023-09-07T03:57:26;101751.78;;;14.20;100.00
74065;BME280;62421;51.412;5.432;2023-09-07T03:59:52;101744.78;;;14.18;100.00
74065;BME280;62421;51.412;5.432;2023-09-07T04:02:18;101743.03;;;14.17;100.00
74065;BME280;62421;51.412;5.432;2023-09-07T04:04:48;101740.34;;;14.17;100.00
74065;BME280;62421;51.412;5.432;2023-09-07T04:07:14;101744.97;;;14.14;100.00
74065;BME280;62421;51.412;5.432;2023-09-07T04:09:39;101741.41;;;14.14;100.00
74065;BME280;62421;51.412;5.432;2023-09-07T04:12:05;101739.81;;;14.11;100.00
74065;BME280;62421;51.412;5.432;2023-09-07T04:14:31;101737.97;;;14.12;100.00
74065;BME280;62421;51.412;5.432;2023-09-07T04:16:57;101739.56;;;14.14;100.00
74065;BME280;62421;51.412;5.432;2023-09-07T04:19:22;101740.34;;;14.17;100.00
74065;BME280;62421;51.412;5.432;2023-09-07T04:21:48;101744.03;;;14.16;100.00
74065;BME280;62421;51.412;5.432;2023-09-07T04:24:13;101751.03;;;14.18;100.00
74065;BME280;62421;51.412;5.432;2023-09-07T04:26:38;101752.75;;;14.19;100.00
74065;BME280;62421;51.412;5.432;2023-09-07T04:29:04;101749.09;;;14.20;100.00
74065;BME280;62421;51.412;5.432;2023-09-07T04:31:31;101748.00;;;14.23;100.00
74065;BME280;62421;51.412;5.432;2023-09-07T04:33:56;101746.06;;;14.25;100.00
74065;BME280;62421;51.412;5.432;2023-09-07T04:36:22;101744.31;;;14.24;100.00
74065;BME280;62421;51.412;5.432;2023-09-07T04:38:48;101757.94;;;14.22;100.00
74065;BME280;62421;51.412;5.432;2023-09-07T04:41:14;101755.59;;;14.18;100.00
74065;BME280;62421;51.412;5.432;2023-09-07T04:43:40;101742.19;;;14.16;100.00
74065;BME280;62421;51.412;5.432;2023-09-07T04:46:08;101749.44;;;14.16;100.00
74065;BME280;62421;51.412;5.432;2023-09-07T04:48:34;101757.72;;;14.12;100.00
74065;BME280;62421;51.412;5.432;2023-09-07T04:51:04;101756.00;;;14.11;100.00
74065;BME280;62421;51.412;5.432;2023-09-07T04:53:33;101748.00;;;14.10;100.00
74065;BME280;62421;51.412;5.432;2023-09-07T04:56:00;101750.94;;;14.07;100.00
74065;BME280;62421;51.412;5.432;2023-09-07T04:58:25;101750.19;;;14.05;100.00
74065;BME280;62421;51.412;5.432;2023-09-07T05:00:51;101745.75;;;14.04;100.00
74065;BME280;62421;51.412;5.432;2023-09-07T05:03:16;101741.44;;;14.01;100.00
74065;BME280;62421;51.412;5.432;2023-09-07T05:05:42;101743.91;;;14.04;100.00
74065;BME280;62421;51.412;5.432;2023-09-07T05:08:09;101749.28;;;14.04;100.00
74065;BME280;62421;51.412;5.432;2023-09-07T05:10:34;101753.84;;;14.04;100.00
74065;BME280;62421;51.412;5.432;2023-09-07T05:13:00;101759.25;;;14.04;100.00
74065;BME280;62421;51.412;5.432;2023-09-07T05:15:26;101762.78;;;14.04;100.00
74065;BME280;62421;51.412;5.432;2023-09-07T05:17:52;101768.19;;;14.04;100.00
74065;BME280;62421;51.412;5.432;2023-09-07T05:20:17;101759.34;;;14.02;100.00
74065;BME280;62421;51.412;5.432;2023-09-07T05:22:43;101763.97;;;14.00;100.00
74065;BME280;62421;51.412;5.432;2023-09-07T05:25:09;101764.09;;;13.99;100.00
74065;BME280;62421;51.412;5.432;2023-09-07T05:27:35;101766.06;;;13.97;100.00
74065;BME280;62421;51.412;5.432;2023-09-07T05:30:01;101759.66;;;13.98;100.00
74065;BME280;62421;51.412;5.432;2023-09-07T05:32:26;101766.81;;;13.99;100.00
74065;BME280;62421;51.412;5.432;2023-09-07T05:34:52;101759.56;;;13.99;100.00
74065;BME280;62421;51.412;5.432;2023-09-07T05:37:17;101764.97;;;13.99;100.00
74065;BME280;62421;51.412;5.432;2023-09-07T05:39:42;101771.13;;;14.01;100.00
74065;BME280;62421;51.412;5.432;2023-09-07T05:42:08;101765.63;;;14.03;100.00
74065;BME280;62421;51.412;5.432;2023-09-07T05:44:33;101771.78;;;14.05;100.00
74065;BME280;62421;51.412;5.432;2023-09-07T05:46:58;101778.03;;;14.05;100.00
74065;BME280;62421;51.412;5.432;2023-09-07T05:49:24;101781.50;;;14.07;100.00
74065;BME280;62421;51.412;5.432;2023-09-07T05:51:49;101783.22;;;14.08;100.00
74065;BME280;62421;51.412;5.432;2023-09-07T05:54:15;101783.13;;;14.10;100.00
74065;BME280;62421;51.412;5.432;2023-09-07T05:56:40;101780.94;;;14.15;100.00
74065;BME280;62421;51.412;5.432;2023-09-07T05:59:05;101788.00;;;14.18;100.00
74065;BME280;62421;51.412;5.432;2023-09-07T06:01:32;101786.78;;;14.22;100.00
74065;BME280;62421;51.412;5.432;2023-09-07T06:03:58;101788.28;;;14.26;100.00
74065;BME280;62421;51.412;5.432;2023-09-07T06:06:24;101781.94;;;14.27;100.00
74065;BME280;62421;51.412;5.432;2023-09-07T06:08:49;101789.81;;;14.30;100.00
74065;BME280;62421;51.412;5.432;2023-09-07T06:11:15;101786.00;;;14.32;100.00
74065;BME280;62421;51.412;5.432;2023-09-07T06:13:41;101791.22;;;14.36;100.00
74065;BME280;62421;51.412;5.432;2023-09-07T06:16:06;101794.69;;;14.38;100.00
74065;BME280;62421;51.412;5.432;2023-09-07T06:18:32;101794.44;;;14.41;100.00
74065;BME280;62421;51.412;5.432;2023-09-07T06:20:57;101795.09;;;14.44;100.00
74065;BME280;62421;51.412;5.432;2023-09-07T06:23:22;101794.88;;;14.47;100.00
74065;BME280;62421;51.412;5.432;2023-09-07T06:25:48;101797.13;;;14.53;100.00
74065;BME280;62421;51.412;5.432;2023-09-07T06:28:13;101800.44;;;14.59;100.00
74065;BME280;62421;51.412;5.432;2023-09-07T06:30:38;101788.28;;;14.64;100.00
74065;BME280;62421;51.412;5.432;2023-09-07T06:33:04;101796.94;;;14.69;100.00
74065;BME280;62421;51.412;5.432;2023-09-07T06:35:29;101804.63;;;14.76;100.00
74065;BME280;62421;51.412;5.432;2023-09-07T06:37:54;101801.78;;;14.77;100.00
74065;BME280;62421;51.412;5.432;2023-09-07T06:40:21;101804.78;;;14.85;100.00
74065;BME280;62421;51.412;5.432;2023-09-07T06:42:46;101797.19;;;14.90;100.00
74065;BME280;62421;51.412;5.432;2023-09-07T06:45:12;101804.25;;;14.93;100.00
74065;BME280;62421;51.412;5.432;2023-09-07T06:47:37;101805.75;;;14.97;100.00
74065;BME280;62421;51.412;5.432;2023-09-07T06:50:04;101808.22;;;15.00;100.00
74065;BME280;62421;51.412;5.432;2023-09-07T06:52:29;101809.72;;;15.04;100.00
74065;BME280;62421;51.412;5.432;2023-09-07T06:54:55;101816.63;;;15.08;100.00
74065;BME280;62421;51.412;5.432;2023-09-07T06:57:20;101813.69;;;15.11;100.00
74065;BME280;62421;51.412;5.432;2023-09-07T06:59:45;101812.38;;;15.17;100.00
74065;BME280;62421;51.412;5.432;2023-09-07T07:02:11;101812.91;;;15.22;100.00
74065;BME280;62421;51.412;5.432;2023-09-07T07:04:36;101810.84;;;15.26;100.00
74065;BME280;62421;51.412;5.432;2023-09-07T07:07:02;101810.50;;;15.30;100.00
74065;BME280;62421;51.412;5.432;2023-09-07T07:09:30;101820.00;;;15.36;100.00
74065;BME280;62421;51.412;5.432;2023-09-07T07:11:55;101825.06;;;15.41;100.00
74065;BME280;62421;51.412;5.432;2023-09-07T07:14:21;101820.06;;;15.47;100.00
74065;BME280;62421;51.412;5.432;2023-09-07T07:16:46;101825.88;;;15.54;100.00
74065;BME280;62421;51.412;5.432;2023-09-07T07:19:11;101826.38;;;15.59;100.00
74065;BME280;62421;51.412;5.432;2023-09-07T07:21:37;101817.69;;;15.67;100.00
74065;BME280;62421;51.412;5.432;2023-09-07T07:24:02;101817.25;;;15.73;100.00
74065;BME280;62421;51.412;5.432;2023-09-07T07:26:29;101822.19;;;15.79;100.00
74065;BME280;62421;51.412;5.432;2023-09-07T07:28:55;101824.06;;;15.90;100.00
74065;BME280;62421;51.412;5.432;2023-09-07T07:31:20;101823.34;;;15.99;100.00
74065;BME280;62421;51.412;5.432;2023-09-07T07:33:47;101824.72;;;16.05;100.00
74065;BME280;62421;51.412;5.432;2023-09-07T07:36:13;101822.25;;;16.13;100.00
74065;BME280;62421;51.412;5.432;2023-09-07T07:38:38;101823.66;;;16.18;100.00
74065;BME280;62421;51.412;5.432;2023-09-07T07:41:04;101819.47;;;16.26;100.00
74065;BME280;62421;51.412;5.432;2023-09-07T07:43:30;101813.56;;;16.32;100.00
74065;BME280;62421;51.412;5.432;2023-09-07T07:45:55;101817.00;;;16.45;100.00
74065;BME280;62421;51.412;5.432;2023-09-07T07:48:21;101818.88;;;16.56;100.00
74065;BME280;62421;51.412;5.432;2023-09-07T07:50:46;101817.25;;;16.65;100.00
74065;BME280;62421;51.412;5.432;2023-09-07T07:53:12;101821.34;;;16.70;100.00
74065;BME280;62421;51.412;5.432;2023-09-07T07:55:37;101812.09;;;16.84;100.00
74065;BME280;62421;51.412;5.432;2023-09-07T07:58:06;101805.81;;;16.95;100.00
74065;BME280;62421;51.412;5.432;2023-09-07T08:00:35;101822.22;;;17.05;100.00
74065;BME280;62421;51.412;5.432;2023-09-07T08:03:01;101802.81;;;17.09;100.00
74065;BME280;62421;51.412;5.432;2023-09-07T08:05:32;101804.31;;;17.13;100.00
74065;BME280;62421;51.412;5.432;2023-09-07T08:07:58;101806.50;;;17.19;100.00
74065;BME280;62421;51.412;5.432;2023-09-07T08:10:23;101795.03;;;17.27;100.00
74065;BME280;62421;51.412;5.432;2023-09-07T08:12:54;101800.53;;;17.37;100.00
74065;BME280;62421;51.412;5.432;2023-09-07T08:15:20;101799.50;;;17.49;100.00
74065;BME280;62421;51.412;5.432;2023-09-07T08:17:48;101796.47;;;17.64;100.00
74065;BME280;62421;51.412;5.432;2023-09-07T08:20:13;101801.09;;;17.84;100.00
74065;BME280;62421;51.412;5.432;2023-09-07T08:22:39;101794.88;;;17.93;100.00
74065;BME280;62421;51.412;5.432;2023-09-07T08:25:07;101782.53;;;18.10;100.00
74065;BME280;62421;51.412;5.432;2023-09-07T08:27:32;101790.59;;;18.21;100.00
74065;BME280;62421;51.412;5.432;2023-09-07T08:29:58;101777.50;;;18.27;100.00
74065;BME280;62421;51.412;5.432;2023-09-07T08:32:24;101783.84;;;18.37;100.00
74065;BME280;62421;51.412;5.432;2023-09-07T08:34:50;101780.72;;;18.41;100.00
74065;BME280;62421;51.412;5.432;2023-09-07T08:37:16;101785.19;;;18.52;100.00
74065;BME280;62421;51.412;5.432;2023-09-07T08:39:41;101782.63;;;18.60;100.00
74065;BME280;62421;51.412;5.432;2023-09-07T08:42:06;101775.38;;;18.71;100.00
74065;BME280;62421;51.412;5.432;2023-09-07T08:44:33;101777.16;;;18.81;100.00
74065;BME280;62421;51.412;5.432;2023-09-07T08:46:59;101780.06;;;18.90;100.00
74065;BME280;62421;51.412;5.432;2023-09-07T08:49:26;101781.50;;;19.03;100.00
74065;BME280;62421;51.412;5.432;2023-09-07T08:51:53;101772.66;;;19.11;100.00
74065;BME280;62421;51.412;5.432;2023-09-07T08:54:19;101771.06;;;19.18;100.00
74065;BME280;62421;51.412;5.432;2023-09-07T08:56:45;101772.09;;;19.27;100.00
74065;BME280;62421;51.412;5.432;2023-09-07T08:59:10;101774.81;;;19.37;100.00
74065;BME280;62421;51.412;5.432;2023-09-07T09:01:36;101772.97;;;19.47;100.00
74065;BME280;62421;51.412;5.432;2023-09-07T09:04:02;101762.38;;;19.54;100.00
74065;BME280;62421;51.412;5.432;2023-09-07T09:06:28;101770.50;;;19.63;100.00
74065;BME280;62421;51.412;5.432;2023-09-07T09:08:56;101764.25;;;19.73;100.00
74065;BME280;62421;51.412;5.432;2023-09-07T09:11:22;101768.41;;;19.77;100.00
74065;BME280;62421;51.412;5.432;2023-09-07T09:13:49;101761.50;;;19.82;100.00
74065;BME280;62421;51.412;5.432;2023-09-07T09:16:15;101761.31;;;19.94;100.00
74065;BME280;62421;51.412;5.432;2023-09-07T09:18:51;101760.59;;;20.01;100.00
74065;BME280;62421;51.412;5.432;2023-09-07T09:21:18;101757.09;;;20.29;100.00
74065;BME280;62421;51.412;5.432;2023-09-07T09:23:47;101764.06;;;20.41;100.00
74065;BME280;62421;51.412;5.432;2023-09-07T09:26:13;101759.16;;;20.44;100.00
74065;BME280;62421;51.412;5.432;2023-09-07T09:28:38;101760.28;;;20.52;100.00
74065;BME280;62421;51.412;5.432;2023-09-07T09:31:04;101753.91;;;20.71;100.00
74065;BME280;62421;51.412;5.432;2023-09-07T09:33:32;101748.22;;;20.82;100.00
74065;BME280;62421;51.412;5.432;2023-09-07T09:36:01;101750.34;;;20.88;100.00
74065;BME280;62421;51.412;5.432;2023-09-07T09:38:27;101757.66;;;20.97;100.00
74065;BME280;62421;51.412;5.432;2023-09-07T09:40:52;101748.28;;;21.00;100.00
74065;BME280;62421;51.412;5.432;2023-09-07T09:43:19;101750.69;;;21.03;100.00
74065;BME280;62421;51.412;5.432;2023-09-07T09:45:45;101750.94;;;21.10;100.00
74065;BME280;62421;51.412;5.432;2023-09-07T09:48:11;101749.75;;;21.12;100.00
74065;BME280;62421;51.412;5.432;2023-09-07T09:50:39;101744.38;;;21.20;100.00
74065;BME280;62421;51.412;5.432;2023-09-07T09:53:05;101741.75;;;21.28;100.00
74065;BME280;62421;51.412;5.432;2023-09-07T09:55:33;101749.44;;;21.43;100.00
74065;BME280;62421;51.412;5.432;2023-09-07T09:57:58;101737.69;;;21.51;100.00
74065;BME280;62421;51.412;5.432;2023-09-07T10:00:24;101743.22;;;21.59;100.00
74065;BME280;62421;51.412;5.432;2023-09-07T10:03:29;101741.75;;;21.64;100.00
74065;BME280;62421;51.412;5.432;2023-09-07T10:06:07;101738.59;;;21.77;100.00
74065;BME280;62421;51.412;5.432;2023-09-07T10:08:33;101743.09;;;21.86;100.00
74065;BME280;62421;51.412;5.432;2023-09-07T10:10:59;101732.38;;;21.93;100.00
74065;BME280;62421;51.412;5.432;2023-09-07T10:13:29;101739.63;;;22.02;100.00
74065;BME280;62421;51.412;5.432;2023-09-07T10:16:06;101738.66;;;22.12;100.00
74065;BME280;62421;51.412;5.432;2023-09-07T10:18:36;101729.38;;;22.22;97.21
74065;BME280;62421;51.412;5.432;2023-09-07T10:21:02;101727.53;;;22.31;99.97
74065;BME280;62421;51.412;5.432;2023-09-07T10:26:03;101728.47;;;22.48;96.87
74065;BME280;62421;51.412;5.432;2023-09-07T10:28:31;101711.34;;;22.54;97.94
74065;BME280;62421;51.412;5.432;2023-09-07T10:31:06;101717.94;;;22.69;98.29
74065;BME280;62421;51.412;5.432;2023-09-07T10:33:33;101713.00;;;22.81;95.12
74065;BME280;62421;51.412;5.432;2023-09-07T10:36:00;101706.00;;;22.87;94.88
74065;BME280;62421;51.412;5.432;2023-09-07T10:38:26;101713.38;;;22.95;94.81
74065;BME280;62421;51.412;5.432;2023-09-07T10:40:56;101718.59;;;23.06;96.00
74065;BME280;62421;51.412;5.432;2023-09-07T10:43:24;101710.00;;;23.09;94.61
74065;BME280;62421;51.412;5.432;2023-09-07T10:45:49;101711.56;;;23.20;94.36
74065;BME280;62421;51.412;5.432;2023-09-07T10:48:16;101705.41;;;23.42;92.10
74065;BME280;62421;51.412;5.432;2023-09-07T10:50:43;101700.44;;;23.62;97.40
74065;BME280;62421;51.412;5.432;2023-09-07T10:53:09;101697.69;;;23.62;91.46
74065;BME280;62421;51.412;5.432;2023-09-07T10:55:38;101698.19;;;23.66;92.78
74065;BME280;62421;51.412;5.432;2023-09-07T10:58:09;101699.56;;;23.70;91.45
74065;BME280;62421;51.412;5.432;2023-09-07T11:00:36;101696.84;;;23.78;91.19
74065;BME280;62421;51.412;5.432;2023-09-07T11:03:09;101693.94;;;23.88;96.79
74065;BME280;62421;51.412;5.432;2023-09-07T11:05:36;101691.66;;;24.00;90.90
74065;BME280;62421;51.412;5.432;2023-09-07T11:08:06;101685.31;;;24.07;92.49
74065;BME280;62421;51.412;5.432;2023-09-07T11:10:33;101690.09;;;24.14;93.23
74065;BME280;62421;51.412;5.432;2023-09-07T11:13:04;101683.38;;;24.16;88.52
74065;BME280;62421;51.412;5.432;2023-09-07T11:15:30;101676.63;;;24.35;87.08
74065;BME280;62421;51.412;5.432;2023-09-07T11:17:57;101681.47;;;24.64;85.71
74065;BME280;62421;51.412;5.432;2023-09-07T11:20:25;101679.38;;;24.75;87.03
74065;BME280;62421;51.412;5.432;2023-09-07T11:22:51;101680.72;;;24.79;85.67
74065;BME280;62421;51.412;5.432;2023-09-07T11:25:16;101681.56;;;24.79;83.38
74065;BME280;62421;51.412;5.432;2023-09-07T11:27:41;101685.38;;;24.78;84.87
74065;BME280;62421;51.412;5.432;2023-09-07T11:30:07;101670.28;;;24.97;81.14
74065;BME280;62421;51.412;5.432;2023-09-07T11:32:36;101668.31;;;25.06;81.71
74065;BME280;62421;51.412;5.432;2023-09-07T11:35:03;101669.38;;;25.05;82.81
74065;BME280;62421;51.412;5.432;2023-09-07T11:37:32;101669.56;;;25.03;83.08
74065;BME280;62421;51.412;5.432;2023-09-07T11:39:58;101675.97;;;25.19;80.72
74065;BME280;62421;51.412;5.432;2023-09-07T11:42:23;101675.09;;;25.26;77.50
74065;BME280;62421;51.412;5.432;2023-09-07T11:44:49;101667.50;;;25.28;78.31
74065;BME280;62421;51.412;5.432;2023-09-07T11:47:14;101665.59;;;25.29;79.41
74065;BME280;62421;51.412;5.432;2023-09-07T11:49:39;101659.38;;;25.35;80.66
74065;BME280;62421;51.412;5.432;2023-09-07T11:52:05;101661.75;;;25.38;76.86
74065;BME280;62421;51.412;5.432;2023-09-07T11:54:30;101654.66;;;25.44;76.34
74065;BME280;62421;51.412;5.432;2023-09-07T11:56:56;101648.13;;;25.45;76.53
74065;BME280;62421;51.412;5.432;2023-09-07T11:59:21;101652.19;;;25.49;73.50
74065;BME280;62421;51.412;5.432;2023-09-07T12:01:46;101654.59;;;25.52;75.14
74065;BME280;62421;51.412;5.432;2023-09-07T12:04:12;101653.19;;;25.56;73.70
74065;BME280;62421;51.412;5.432;2023-09-07T12:06:37;101643.53;;;25.75;72.55
74065;BME280;62421;51.412;5.432;2023-09-07T12:09:07;101649.41;;;25.87;75.88
74065;BME280;62421;51.412;5.432;2023-09-07T12:11:34;101653.78;;;25.96;75.77
74065;BME280;62421;51.412;5.432;2023-09-07T12:13:59;101654.66;;;26.11;70.04
74065;BME280;62421;51.412;5.432;2023-09-07T12:16:26;101636.81;;;26.22;71.42
74065;BME280;62421;51.412;5.432;2023-09-07T12:18:51;101641.09;;;26.25;75.32
74065;BME280;62421;51.412;5.432;2023-09-07T12:21:17;101632.81;;;26.25;70.04
74065;BME280;62421;51.412;5.432;2023-09-07T12:23:42;101631.09;;;26.24;72.80
74065;BME280;62421;51.412;5.432;2023-09-07T12:26:07;101633.66;;;26.25;73.25
74065;BME280;62421;51.412;5.432;2023-09-07T12:28:33;101630.53;;;26.28;69.27
74065;BME280;62421;51.412;5.432;2023-09-07T12:30:59;101627.75;;;26.28;67.89
74065;BME280;62421;51.412;5.432;2023-09-07T12:33:24;101624.81;;;26.30;69.12
74065;BME280;62421;51.412;5.432;2023-09-07T12:35:50;101623.81;;;26.31;67.83
74065;BME280;62421;51.412;5.432;2023-09-07T12:38:16;101623.81;;;26.31;69.81
74065;BME280;62421;51.412;5.432;2023-09-07T12:40:43;101620.47;;;26.35;70.95